sensor_id;sensor_type;location;lat;lon;timestamp;pressure;altitude;pressure_sealevel;temperature;humidity
26376;BME280;30544;42.196;24.336;2022-10-16T00:02:13;99851.22;;;11.34;85.28
26376;BME280;30544;42.196;24.336;2022-10-16T00:04:40;99855.31;;;11.31;85.03
26376;BME280;30544;42.196;24.336;2022-10-16T00:07:06;99862.34;;;11.34;85.70
26376;BME280;30544;42.196;24.336;2022-10-16T00:09:33;99844.47;;;11.30;85.21
26376;BME280;30544;42.196;24.336;2022-10-16T00:12:01;99860.97;;;11.25;85.56
26376;BME280;30544;42.196;24.336;2022-10-16T00:14:29;99861.31;;;11.17;85.19
26376;BME280;30544;42.196;24.336;2022-10-16T00:16:56;99865.72;;;11.06;85.70
26376;BME280;30544;42.196;24.336;2022-10-16T00:19:23;99868.72;;;10.93;86.95
26376;BME280;30544;42.196;24.336;2022-10-16T00:21:49;99865.72;;;10.94;87.38
26376;BME280;30544;42.196;24.336;2022-10-16T00:24:16;99868.97;;;11.03;86.92
26376;BME280;30544;42.196;24.336;2022-10-16T00:26:43;99865.38;;;11.02;87.00
26376;BME280;30544;42.196;24.336;2022-10-16T00:29:11;99860.53;;;10.98;86.52
26376;BME280;30544;42.196;24.336;2022-10-16T00:31:38;99866.84;;;10.87;87.17
26376;BME280;30544;42.196;24.336;2022-10-16T00:34:04;99872.66;;;10.85;87.31
26376;BME280;30544;42.196;24.336;2022-10-16T00:36:32;99866.97;;;10.80;86.72
26376;BME280;30544;42.196;24.336;2022-10-16T00:38:58;99874.19;;;10.81;87.82
26376;BME280;30544;42.196;24.336;2022-10-16T00:41:26;99869.81;;;10.73;87.35
26376;BME280;30544;42.196;24.336;2022-10-16T00:43:54;99874.00;;;10.64;87.54
26376;BME280;30544;42.196;24.336;2022-10-16T00:46:25;99877.91;;;10.57;87.86
26376;BME280;30544;42.196;24.336;2022-10-16T00:48:57;99874.06;;;10.39;87.74
26376;BME280;30544;42.196;24.336;2022-10-16T00:51:31;99894.88;;;10.48;88.16
26376;BME280;30544;42.196;24.336;2022-10-16T00:53:59;99884.63;;;10.31;88.54
26376;BME280;30544;42.196;24.336;2022-10-16T00:56:27;99893.66;;;10.26;88.61
26376;BME280;30544;42.196;24.336;2022-10-16T00:58:54;99904.31;;;10.22;89.16
26376;BME280;30544;42.196;24.336;2022-10-16T01:01:20;99903.91;;;10.19;88.58
26376;BME280;30544;42.196;24.336;2022-10-16T01:03:48;99903.50;;;10.15;88.69
26376;BME280;30544;42.196;24.336;2022-10-16T01:06:22;99909.13;;;10.09;88.48
26376;BME280;30544;42.196;24.336;2022-10-16T01:08:59;99920.50;;;10.01;88.94
26376;BME280;30544;42.196;24.336;2022-10-16T01:11:33;99909.06;;;9.90;90.11
26376;BME280;30544;42.196;24.336;2022-10-16T01:14:08;99897.38;;;9.88;89.61
26376;BME280;30544;42.196;24.336;2022-10-16T01:16:41;99916.81;;;10.07;88.55
26376;BME280;30544;42.196;24.336;2022-10-16T01:19:16;99913.00;;;10.08;89.24
26376;BME280;30544;42.196;24.336;2022-10-16T01:21:47;99913.41;;;10.05;88.82
26376;BME280;30544;42.196;24.336;2022-10-16T01:24:27;99916.03;;;10.00;89.25
26376;BME280;30544;42.196;24.336;2022-10-16T01:27:14;99917.72;;;10.01;89.21
26376;BME280;30544;42.196;24.336;2022-10-16T01:29:50;99921.22;;;9.89;88.87
26376;BME280;30544;42.196;24.336;2022-10-16T01:32:26;99923.38;;;9.87;89.20
26376;BME280;30544;42.196;24.336;2022-10-16T01:34:59;99927.34;;;9.73;89.58
26376;BME280;30544;42.196;24.336;2022-10-16T01:37:33;99929.91;;;9.75;89.27
26376;BME280;30544;42.196;24.336;2022-10-16T01:40:05;99927.34;;;9.73;90.53
26376;BME280;30544;42.196;24.336;2022-10-16T01:42:36;99931.19;;;9.72;90.64
26376;BME280;30544;42.196;24.336;2022-10-16T01:45:07;99928.16;;;9.80;89.07
26376;BME280;30544;42.196;24.336;2022-10-16T01:47:37;99933.16;;;9.65;90.00
26376;BME280;30544;42.196;24.336;2022-10-16T01:50:06;99935.31;;;9.63;90.86
26376;BME280;30544;42.196;24.336;2022-10-16T01:52:36;99926.63;;;9.53;90.12
26376;BME280;30544;42.196;24.336;2022-10-16T01:55:07;99923.25;;;9.51;90.49
26376;BME280;30544;42.196;24.336;2022-10-16T01:57:39;99922.63;;;9.49;90.32
26376;BME280;30544;42.196;24.336;2022-10-16T02:00:11;99924.16;;;9.45;90.29
26376;BME280;30544;42.196;24.336;2022-10-16T02:02:40;99926.41;;;9.54;90.33
26376;BME280;30544;42.196;24.336;2022-10-16T02:05:12;99937.56;;;9.48;90.42
26376;BME280;30544;42.196;24.336;2022-10-16T02:07:41;99934.19;;;9.39;90.59
26376;BME280;30544;42.196;24.336;2022-10-16T02:10:09;99929.38;;;9.28;91.92
26376;BME280;30544;42.196;24.336;2022-10-16T02:12:40;99951.44;;;9.41;91.21
26376;BME280;30544;42.196;24.336;2022-10-16T02:15:09;99946.38;;;9.31;91.64
26376;BME280;30544;42.196;24.336;2022-10-16T02:17:35;99919.06;;;9.10;91.86
26376;BME280;30544;42.196;24.336;2022-10-16T02:20:04;99939.16;;;9.30;91.91
26376;BME280;30544;42.196;24.336;2022-10-16T02:22:34;99943.66;;;9.25;92.07
26376;BME280;30544;42.196;24.336;2022-10-16T02:25:06;99950.00;;;9.32;91.81
26376;BME280;30544;42.196;24.336;2022-10-16T02:27:40;99938.97;;;9.25;91.55
26376;BME280;30544;42.196;24.336;2022-10-16T02:30:10;99947.63;;;9.35;90.52
26376;BME280;30544;42.196;24.336;2022-10-16T02:32:41;99930.91;;;9.17;90.38
26376;BME280;30544;42.196;24.336;2022-10-16T02:35:09;99950.06;;;9.25;90.77
26376;BME280;30544;42.196;24.336;2022-10-16T02:37:38;99950.28;;;9.24;90.33
26376;BME280;30544;42.196;24.336;2022-10-16T02:40:08;99950.28;;;9.24;89.97
26376;BME280;30544;42.196;24.336;2022-10-16T02:42:36;99956.69;;;9.18;90.00
26376;BME280;30544;42.196;24.336;2022-10-16T02:45:07;99951.19;;;9.11;89.69
26376;BME280;30544;42.196;24.336;2022-10-16T02:47:34;99955.03;;;9.10;89.48
26376;BME280;30544;42.196;24.336;2022-10-16T02:50:00;99941.25;;;8.97;89.90
26376;BME280;30544;42.196;24.336;2022-10-16T02:52:27;99962.06;;;9.06;89.62
26376;BME280;30544;42.196;24.336;2022-10-16T02:54:54;99964.06;;;8.92;90.98
26376;BME280;30544;42.196;24.336;2022-10-16T02:57:21;99968.06;;;8.96;90.76
26376;BME280;30544;42.196;24.336;2022-10-16T02:59:47;99972.97;;;8.94;90.92
26376;BME280;30544;42.196;24.336;2022-10-16T03:02:15;99967.66;;;8.86;90.58
26376;BME280;30544;42.196;24.336;2022-10-16T03:04:42;99967.28;;;8.83;91.19
26376;BME280;30544;42.196;24.336;2022-10-16T03:07:09;99968.81;;;8.65;91.26
26376;BME280;30544;42.196;24.336;2022-10-16T03:09:36;99977.75;;;8.67;91.63
26376;BME280;30544;42.196;24.336;2022-10-16T03:12:03;99973.91;;;8.68;92.19
26376;BME280;30544;42.196;24.336;2022-10-16T03:14:29;99977.94;;;8.72;91.05
26376;BME280;30544;42.196;24.336;2022-10-16T03:16:56;99978.22;;;8.58;92.59
26376;BME280;30544;42.196;24.336;2022-10-16T03:19:24;99976.06;;;8.60;92.18
26376;BME280;30544;42.196;24.336;2022-10-16T03:21:51;99989.72;;;8.48;93.01
26376;BME280;30544;42.196;24.336;2022-10-16T03:24:18;99986.97;;;8.41;93.26
26376;BME280;30544;42.196;24.336;2022-10-16T03:26:45;99993.75;;;8.26;93.56
26376;BME280;30544;42.196;24.336;2022-10-16T03:29:12;99996.09;;;8.42;94.01
26376;BME280;30544;42.196;24.336;2022-10-16T03:31:38;99986.69;;;8.56;93.14
26376;BME280;30544;42.196;24.336;2022-10-16T03:34:05;99986.28;;;8.59;92.54
26376;BME280;30544;42.196;24.336;2022-10-16T03:36:33;99986.94;;;8.48;93.16
26376;BME280;30544;42.196;24.336;2022-10-16T03:39:00;99992.28;;;8.43;93.17
26376;BME280;30544;42.196;24.336;2022-10-16T03:41:27;99992.06;;;8.38;93.80
26376;BME280;30544;42.196;24.336;2022-10-16T03:43:54;99991.41;;;8.49;92.94
26376;BME280;30544;42.196;24.336;2022-10-16T03:46:20;99995.88;;;8.43;93.55
26376;BME280;30544;42.196;24.336;2022-10-16T03:48:47;99985.47;;;8.46;92.91
26376;BME280;30544;42.196;24.336;2022-10-16T03:51:14;99988.88;;;8.41;93.59
26376;BME280;30544;42.196;24.336;2022-10-16T03:53:42;99992.66;;;8.33;93.93
26376;BME280;30544;42.196;24.336;2022-10-16T03:56:09;99989.06;;;8.39;93.80
26376;BME280;30544;42.196;24.336;2022-10-16T03:58:35;99991.19;;;8.31;93.64
26376;BME280;30544;42.196;24.336;2022-10-16T04:01:03;99982.28;;;8.42;94.20
26376;BME280;30544;42.196;24.336;2022-10-16T04:03:29;99990.13;;;8.45;94.04
26376;BME280;30544;42.196;24.336;2022-10-16T04:05:56;99995.25;;;8.28;94.00
26376;BME280;30544;42.196;24.336;2022-10-16T04:08:23;99990.56;;;8.35;94.23
26376;BME280;30544;42.196;24.336;2022-10-16T04:10:51;100000.75;;;8.28;93.78
26376;BME280;30544;42.196;24.336;2022-10-16T04:13:18;100002.69;;;8.14;94.90
26376;BME280;30544;42.196;24.336;2022-10-16T04:15:45;99998.00;;;8.22;94.71
26376;BME280;30544;42.196;24.336;2022-10-16T04:18:12;99994.19;;;8.09;95.72
26376;BME280;30544;42.196;24.336;2022-10-16T04:20:39;99996.09;;;8.15;94.85
26376;BME280;30544;42.196;24.336;2022-10-16T04:23:06;99996.50;;;8.19;95.85
26376;BME280;30544;42.196;24.336;2022-10-16T04:25:32;100005.44;;;8.28;95.04
26376;BME280;30544;42.196;24.336;2022-10-16T04:28:00;99985.03;;;8.15;95.40
26376;BME280;30544;42.196;24.336;2022-10-16T04:30:28;99998.41;;;8.19;95.24
26376;BME280;30544;42.196;24.336;2022-10-16T04:32:54;100003.09;;;8.18;95.27
26376;BME280;30544;42.196;24.336;2022-10-16T04:35:21;100007.34;;;8.14;95.27
26376;BME280;30544;42.196;24.336;2022-10-16T04:37:48;100011.19;;;8.06;95.05
26376;BME280;30544;42.196;24.336;2022-10-16T04:40:15;99996.09;;;8.02;95.14
26376;BME280;30544;42.196;24.336;2022-10-16T04:42:42;100004.38;;;7.96;95.34
26376;BME280;30544;42.196;24.336;2022-10-16T04:45:11;100010.94;;;7.88;95.48
26376;BME280;30544;42.196;24.336;2022-10-16T04:47:37;100006.28;;;7.82;95.18
26376;BME280;30544;42.196;24.336;2022-10-16T04:50:05;100016.50;;;7.95;94.52
26376;BME280;30544;42.196;24.336;2022-10-16T04:52:32;100015.63;;;7.81;94.26
26376;BME280;30544;42.196;24.336;2022-10-16T04:54:59;100030.50;;;7.87;95.02
26376;BME280;30544;42.196;24.336;2022-10-16T04:57:28;100010.13;;;7.94;94.00
26376;BME280;30544;42.196;24.336;2022-10-16T04:59:55;100032.22;;;8.21;92.98
26376;BME280;30544;42.196;24.336;2022-10-16T05:02:23;100030.72;;;8.05;93.22
26376;BME280;30544;42.196;24.336;2022-10-16T05:04:50;100041.16;;;8.09;93.50
26376;BME280;30544;42.196;24.336;2022-10-16T05:07:17;100040.31;;;8.15;93.95
26376;BME280;30544;42.196;24.336;2022-10-16T05:09:43;100040.28;;;8.22;93.93
26376;BME280;30544;42.196;24.336;2022-10-16T05:12:10;100046.66;;;8.23;92.98
26376;BME280;30544;42.196;24.336;2022-10-16T05:14:37;100050.94;;;7.92;94.73
26376;BME280;30544;42.196;24.336;2022-10-16T05:17:04;100046.47;;;7.98;94.42
26376;BME280;30544;42.196;24.336;2022-10-16T05:19:32;100049.22;;;8.04;94.86
26376;BME280;30544;42.196;24.336;2022-10-16T05:21:59;100052.41;;;8.14;93.68
26376;BME280;30544;42.196;24.336;2022-10-16T05:24:26;100052.00;;;8.37;94.01
26376;BME280;30544;42.196;24.336;2022-10-16T05:26:53;100052.66;;;8.53;93.36
26376;BME280;30544;42.196;24.336;2022-10-16T05:29:20;100056.03;;;8.55;91.94
26376;BME280;30544;42.196;24.336;2022-10-16T05:31:46;100069.00;;;8.74;92.08
26376;BME280;30544;42.196;24.336;2022-10-16T05:34:16;100075.81;;;8.65;91.46
26376;BME280;30544;42.196;24.336;2022-10-16T05:36:44;100071.34;;;8.70;91.00
26376;BME280;30544;42.196;24.336;2022-10-16T05:39:11;100064.53;;;8.66;90.86
26376;BME280;30544;42.196;24.336;2022-10-16T05:41:38;100074.31;;;8.76;91.17
26376;BME280;30544;42.196;24.336;2022-10-16T05:44:05;100078.34;;;8.86;91.08
26376;BME280;30544;42.196;24.336;2022-10-16T05:46:32;100073.19;;;9.03;89.76
26376;BME280;30544;42.196;24.336;2022-10-16T05:48:59;100083.56;;;9.21;89.18
26376;BME280;30544;42.196;24.336;2022-10-16T05:51:26;100092.50;;;9.23;89.46
26376;BME280;30544;42.196;24.336;2022-10-16T05:53:54;100098.03;;;9.29;89.13
26376;BME280;30544;42.196;24.336;2022-10-16T05:56:21;100100.59;;;9.24;88.74
26376;BME280;30544;42.196;24.336;2022-10-16T05:58:47;100104.38;;;9.37;87.75
26376;BME280;30544;42.196;24.336;2022-10-16T06:01:16;100099.22;;;9.47;88.26
26376;BME280;30544;42.196;24.336;2022-10-16T06:03:43;100116.94;;;9.39;87.29
26376;BME280;30544;42.196;24.336;2022-10-16T06:06:11;100112.19;;;9.53;87.39
26376;BME280;30544;42.196;24.336;2022-10-16T06:08:38;100113.69;;;9.49;87.65
26376;BME280;30544;42.196;24.336;2022-10-16T06:11:08;100116.09;;;9.83;85.84
26376;BME280;30544;42.196;24.336;2022-10-16T06:13:36;100108.81;;;9.89;86.39
26376;BME280;30544;42.196;24.336;2022-10-16T06:16:05;100116.25;;;9.95;86.17
26376;BME280;30544;42.196;24.336;2022-10-16T06:18:32;100116.47;;;9.93;85.41
26376;BME280;30544;42.196;24.336;2022-10-16T06:20:58;100110.94;;;9.93;86.42
26376;BME280;30544;42.196;24.336;2022-10-16T06:23:28;100113.13;;;10.16;85.37
26376;BME280;30544;42.196;24.336;2022-10-16T06:26:04;100119.63;;;10.35;85.61
26376;BME280;30544;42.196;24.336;2022-10-16T06:28:32;100124.72;;;10.38;83.88
26376;BME280;30544;42.196;24.336;2022-10-16T06:30:59;100104.69;;;10.36;84.09
26376;BME280;30544;42.196;24.336;2022-10-16T06:33:26;100127.56;;;10.57;83.28
26376;BME280;30544;42.196;24.336;2022-10-16T06:35:52;100135.38;;;10.41;85.12
26376;BME280;30544;42.196;24.336;2022-10-16T06:38:19;100142.00;;;10.65;83.90
26376;BME280;30544;42.196;24.336;2022-10-16T06:40:46;100138.63;;;10.63;83.47
26376;BME280;30544;42.196;24.336;2022-10-16T06:43:13;100134.16;;;10.62;83.59
26376;BME280;30544;42.196;24.336;2022-10-16T06:45:41;100130.53;;;11.05;83.47
26376;BME280;30544;42.196;24.336;2022-10-16T06:48:09;100138.03;;;11.23;81.95
26376;BME280;30544;42.196;24.336;2022-10-16T06:50:35;100135.22;;;11.48;80.88
26376;BME280;30544;42.196;24.336;2022-10-16T06:53:02;100138.91;;;11.41;79.46
26376;BME280;30544;42.196;24.336;2022-10-16T06:55:29;100137.66;;;11.56;79.94
26376;BME280;30544;42.196;24.336;2022-10-16T06:57:56;100137.28;;;11.89;79.28
26376;BME280;30544;42.196;24.336;2022-10-16T07:00:22;100139.78;;;11.79;77.91
26376;BME280;30544;42.196;24.336;2022-10-16T07:02:51;100135.28;;;12.08;78.42
26376;BME280;30544;42.196;24.336;2022-10-16T07:05:17;100133.59;;;12.37;77.28
26376;BME280;30544;42.196;24.336;2022-10-16T07:07:44;100144.72;;;12.37;76.67
26376;BME280;30544;42.196;24.336;2022-10-16T07:10:11;100143.84;;;12.66;76.56
26376;BME280;30544;42.196;24.336;2022-10-16T07:12:37;100152.41;;;12.76;75.82
26376;BME280;30544;42.196;24.336;2022-10-16T07:15:05;100149.31;;;12.96;75.15
26376;BME280;30544;42.196;24.336;2022-10-16T07:17:32;100149.94;;;13.33;73.45
26376;BME280;30544;42.196;24.336;2022-10-16T07:20:01;100154.66;;;12.98;74.16
26376;BME280;30544;42.196;24.336;2022-10-16T07:22:28;100145.91;;;13.06;73.43
26376;BME280;30544;42.196;24.336;2022-10-16T07:24:55;100147.28;;;13.27;73.26
26376;BME280;30544;42.196;24.336;2022-10-16T07:27:22;100143.28;;;13.46;72.46
26376;BME280;30544;42.196;24.336;2022-10-16T07:29:49;100150.50;;;13.59;71.62
26376;BME280;30544;42.196;24.336;2022-10-16T07:32:16;100142.59;;;13.79;71.45
26376;BME280;30544;42.196;24.336;2022-10-16T07:34:43;100150.53;;;13.99;70.88
26376;BME280;30544;42.196;24.336;2022-10-16T07:37:12;100143.22;;;14.09;69.47
26376;BME280;30544;42.196;24.336;2022-10-16T07:39:39;100148.41;;;14.18;70.05
26376;BME280;30544;42.196;24.336;2022-10-16T07:42:06;100150.13;;;14.07;69.87
26376;BME280;30544;42.196;24.336;2022-10-16T07:44:33;100154.38;;;14.09;69.63
26376;BME280;30544;42.196;24.336;2022-10-16T07:46:59;100149.56;;;14.62;69.12
26376;BME280;30544;42.196;24.336;2022-10-16T07:49:26;100153.94;;;14.74;67.38
26376;BME280;30544;42.196;24.336;2022-10-16T07:51:53;100155.63;;;14.75;68.62
26376;BME280;30544;42.196;24.336;2022-10-16T07:54:21;100156.75;;;14.91;66.90
26376;BME280;30544;42.196;24.336;2022-10-16T07:56:48;100154.66;;;14.82;67.63
26376;BME280;30544;42.196;24.336;2022-10-16T07:59:14;100153.88;;;14.69;67.70
26376;BME280;30544;42.196;24.336;2022-10-16T08:01:41;100155.38;;;14.60;66.69
26376;BME280;30544;42.196;24.336;2022-10-16T08:04:09;100154.38;;;15.00;66.33
26376;BME280;30544;42.196;24.336;2022-10-16T08:06:36;100152.78;;;15.04;66.62
26376;BME280;30544;42.196;24.336;2022-10-16T08:09:05;100149.97;;;15.04;65.84
26376;BME280;30544;42.196;24.336;2022-10-16T08:11:33;100159.44;;;14.69;66.55
26376;BME280;30544;42.196;24.336;2022-10-16T08:14:00;100158.09;;;14.89;65.84
26376;BME280;30544;42.196;24.336;2022-10-16T08:16:28;100156.91;;;15.18;64.71
26376;BME280;30544;42.196;24.336;2022-10-16T08:18:55;100146.84;;;15.56;64.18
26376;BME280;30544;42.196;24.336;2022-10-16T08:21:22;100151.84;;;15.54;64.33
26376;BME280;30544;42.196;24.336;2022-10-16T08:23:50;100154.34;;;15.33;65.32
26376;BME280;30544;42.196;24.336;2022-10-16T08:26:17;100153.47;;;15.50;64.59
26376;BME280;30544;42.196;24.336;2022-10-16T08:28:45;100148.63;;;15.07;66.30
26376;BME280;30544;42.196;24.336;2022-10-16T08:31:14;100151.78;;;15.87;64.49
26376;BME280;30544;42.196;24.336;2022-10-16T08:33:44;100154.94;;;15.74;64.10
26376;BME280;30544;42.196;24.336;2022-10-16T08:36:12;100150.28;;;16.02;63.94
26376;BME280;30544;42.196;24.336;2022-10-16T08:38:39;100143.53;;;16.24;63.17
26376;BME280;30544;42.196;24.336;2022-10-16T08:41:20;100146.13;;;16.58;61.75
26376;BME280;30544;42.196;24.336;2022-10-16T08:44:09;100139.34;;;16.49;61.78
26376;BME280;30544;42.196;24.336;2022-10-16T08:46:48;100142.16;;;16.27;62.52
26376;BME280;30544;42.196;24.336;2022-10-16T08:49:18;100138.16;;;16.45;62.00
26376;BME280;30544;42.196;24.336;2022-10-16T08:51:45;100133.41;;;16.45;61.61
26376;BME280;30544;42.196;24.336;2022-10-16T08:54:24;100133.63;;;15.68;63.08
26376;BME280;30544;42.196;24.336;2022-10-16T08:56:54;100138.38;;;15.89;64.53
26376;BME280;30544;42.196;24.336;2022-10-16T08:59:22;100142.47;;;16.04;62.89
26376;BME280;30544;42.196;24.336;2022-10-16T09:01:50;100140.47;;;16.26;62.63
26376;BME280;30544;42.196;24.336;2022-10-16T09:04:45;100136.19;;;16.45;62.04
26376;BME280;30544;42.196;24.336;2022-10-16T09:07:21;100141.78;;;16.67;60.93
26376;BME280;30544;42.196;24.336;2022-10-16T09:10:01;100128.97;;;16.76;60.26
26376;BME280;30544;42.196;24.336;2022-10-16T09:12:33;100136.91;;;16.31;60.82
26376;BME280;30544;42.196;24.336;2022-10-16T09:15:14;100130.31;;;16.69;61.48
26376;BME280;30544;42.196;24.336;2022-10-16T09:17:52;100128.03;;;17.40;60.45
26376;BME280;30544;42.196;24.336;2022-10-16T09:20:30;100129.66;;;17.68;59.45
26376;BME280;30544;42.196;24.336;2022-10-16T09:23:10;100130.97;;;17.60;58.32
26376;BME280;30544;42.196;24.336;2022-10-16T09:25:39;100127.56;;;17.48;57.96
26376;BME280;30544;42.196;24.336;2022-10-16T09:28:09;100128.41;;;17.54;57.30
26376;BME280;30544;42.196;24.336;2022-10-16T09:30:37;100117.38;;;17.37;56.61
26376;BME280;30544;42.196;24.336;2022-10-16T09:33:05;100115.88;;;17.19;56.45
26376;BME280;30544;42.196;24.336;2022-10-16T09:35:36;100118.63;;;17.61;56.72
26376;BME280;30544;42.196;24.336;2022-10-16T09:38:04;100112.97;;;17.51;56.21
26376;BME280;30544;42.196;24.336;2022-10-16T09:40:33;100114.78;;;17.25;54.64
26376;BME280;30544;42.196;24.336;2022-10-16T09:43:21;100113.13;;;17.71;54.50
26376;BME280;30544;42.196;24.336;2022-10-16T09:45:58;100103.69;;;17.45;53.44
26376;BME280;30544;42.196;24.336;2022-10-16T09:48:35;100105.44;;;17.62;53.33
26376;BME280;30544;42.196;24.336;2022-10-16T09:51:04;100105.34;;;17.89;53.95
26376;BME280;30544;42.196;24.336;2022-10-16T09:53:40;100108.69;;;17.91;52.57
26376;BME280;30544;42.196;24.336;2022-10-16T09:56:10;100104.78;;;17.97;53.20
26376;BME280;30544;42.196;24.336;2022-10-16T09:58:42;100105.44;;;18.14;52.28
26376;BME280;30544;42.196;24.336;2022-10-16T10:01:13;100101.78;;;18.29;50.72
26376;BME280;30544;42.196;24.336;2022-10-16T10:03:42;100105.09;;;18.00;51.66
26376;BME280;30544;42.196;24.336;2022-10-16T10:06:18;100104.31;;;18.20;52.10
26376;BME280;30544;42.196;24.336;2022-10-16T10:08:56;100105.72;;;18.28;51.07
26376;BME280;30544;42.196;24.336;2022-10-16T10:11:40;100095.94;;;18.36;50.34
26376;BME280;30544;42.196;24.336;2022-10-16T10:14:23;100095.94;;;18.56;50.02
26376;BME280;30544;42.196;24.336;2022-10-16T10:17:01;100094.59;;;18.89;48.54
26376;BME280;30544;42.196;24.336;2022-10-16T10:19:28;100088.09;;;18.63;48.98
26376;BME280;30544;42.196;24.336;2022-10-16T10:21:55;100080.81;;;18.87;48.05
26376;BME280;30544;42.196;24.336;2022-10-16T10:24:22;100079.69;;;18.63;47.81
26376;BME280;30544;42.196;24.336;2022-10-16T10:26:57;100076.84;;;18.48;47.87
26376;BME280;30544;42.196;24.336;2022-10-16T10:29:38;100064.75;;;18.47;47.13
26376;BME280;30544;42.196;24.336;2022-10-16T10:32:21;100070.94;;;18.59;46.51
26376;BME280;30544;42.196;24.336;2022-10-16T10:34:58;100056.91;;;18.54;46.63
26376;BME280;30544;42.196;24.336;2022-10-16T10:37:37;100051.59;;;18.88;47.28
26376;BME280;30544;42.196;24.336;2022-10-16T10:40:15;100046.25;;;18.77;46.51
26376;BME280;30544;42.196;24.336;2022-10-16T10:42:51;100046.50;;;18.40;46.32
26376;BME280;30544;42.196;24.336;2022-10-16T10:45:26;100046.50;;;18.34;46.56
26376;BME280;30544;42.196;24.336;2022-10-16T10:48:05;100055.50;;;18.52;46.46
26376;BME280;30544;42.196;24.336;2022-10-16T10:50:43;100044.84;;;18.74;46.33
26376;BME280;30544;42.196;24.336;2022-10-16T10:53:21;100046.81;;;18.79;45.63
26376;BME280;30544;42.196;24.336;2022-10-16T10:55:57;100047.66;;;19.00;47.10
26376;BME280;30544;42.196;24.336;2022-10-16T10:58:36;100043.44;;;18.72;46.80
26376;BME280;30544;42.196;24.336;2022-10-16T11:01:09;100043.44;;;18.87;47.11
26376;BME280;30544;42.196;24.336;2022-10-16T11:03:54;100031.91;;;18.63;47.07
26376;BME280;30544;42.196;24.336;2022-10-16T11:06:28;100032.44;;;18.96;46.93
26376;BME280;30544;42.196;24.336;2022-10-16T11:09:00;100029.00;;;19.29;46.73
26376;BME280;30544;42.196;24.336;2022-10-16T11:11:32;100022.53;;;19.34;45.60
26376;BME280;30544;42.196;24.336;2022-10-16T11:14:05;100033.16;;;19.47;46.12
26376;BME280;30544;42.196;24.336;2022-10-16T11:16:43;100022.81;;;19.37;45.35
26376;BME280;30544;42.196;24.336;2022-10-16T11:19:22;100015.75;;;19.40;46.66
26376;BME280;30544;42.196;24.336;2022-10-16T11:21:59;100017.13;;;19.47;47.28
26376;BME280;30544;42.196;24.336;2022-10-16T11:24:36;100016.25;;;19.62;45.27
26376;BME280;30544;42.196;24.336;2022-10-16T11:27:09;100014.28;;;19.63;45.38
26376;BME280;30544;42.196;24.336;2022-10-16T11:29:46;100017.13;;;19.47;44.98
26376;BME280;30544;42.196;24.336;2022-10-16T11:32:22;100010.66;;;19.47;45.12
26376;BME280;30544;42.196;24.336;2022-10-16T11:34:55;100015.22;;;19.38;45.16
26376;BME280;30544;42.196;24.336;2022-10-16T11:37:28;100017.19;;;19.37;44.53
26376;BME280;30544;42.196;24.336;2022-10-16T11:40:03;100015.22;;;19.28;44.91
26376;BME280;30544;42.196;24.336;2022-10-16T11:42:39;100014.44;;;19.17;44.66
26376;BME280;30544;42.196;24.336;2022-10-16T11:45:15;100009.69;;;19.02;44.22
26376;BME280;30544;42.196;24.336;2022-10-16T11:47:56;100008.84;;;19.02;44.69
26376;BME280;30544;42.196;24.336;2022-10-16T11:50:32;100006.00;;;19.07;44.44
26376;BME280;30544;42.196;24.336;2022-10-16T11:53:04;100003.19;;;19.12;43.46
26376;BME280;30544;42.196;24.336;2022-10-16T11:55:37;100004.34;;;19.01;43.11
26376;BME280;30544;42.196;24.336;2022-10-16T11:58:09;100003.22;;;18.97;43.18
26376;BME280;30544;42.196;24.336;2022-10-16T12:00:44;99996.41;;;19.23;43.82
26376;BME280;30544;42.196;24.336;2022-10-16T12:03:18;99997.53;;;19.22;43.36
26376;BME280;30544;42.196;24.336;2022-10-16T12:05:55;99999.69;;;19.50;43.51
26376;BME280;30544;42.196;24.336;2022-10-16T12:08:25;100003.34;;;19.46;42.69
26376;BME280;30544;42.196;24.336;2022-10-16T12:10:53;100009.81;;;19.57;43.33
26376;BME280;30544;42.196;24.336;2022-10-16T12:13:31;100006.44;;;19.49;42.76
26376;BME280;30544;42.196;24.336;2022-10-16T12:16:22;100013.78;;;19.40;42.66
26376;BME280;30544;42.196;24.336;2022-10-16T12:19:09;100000.25;;;19.52;44.67
26376;BME280;30544;42.196;24.336;2022-10-16T12:21:38;100023.69;;;19.22;42.82
26376;BME280;30544;42.196;24.336;2022-10-16T12:24:06;100010.19;;;19.24;42.38
26376;BME280;30544;42.196;24.336;2022-10-16T12:26:36;100003.63;;;19.49;42.68
26376;BME280;30544;42.196;24.336;2022-10-16T12:29:14;100010.97;;;19.40;43.69
26376;BME280;30544;42.196;24.336;2022-10-16T12:31:47;100015.44;;;19.46;42.88
26376;BME280;30544;42.196;24.336;2022-10-16T12:34:23;100007.06;;;19.36;42.58
26376;BME280;30544;42.196;24.336;2022-10-16T12:36:55;100010.66;;;19.47;43.22
26376;BME280;30544;42.196;24.336;2022-10-16T12:39:34;100007.19;;;19.75;42.63
26376;BME280;30544;42.196;24.336;2022-10-16T12:42:03;100018.50;;;19.65;43.05
26376;BME280;30544;42.196;24.336;2022-10-16T12:44:34;100007.19;;;19.75;42.40
26376;BME280;30544;42.196;24.336;2022-10-16T12:47:01;100009.91;;;19.21;42.20
26376;BME280;30544;42.196;24.336;2022-10-16T12:49:32;100001.66;;;19.50;42.10
26376;BME280;30544;42.196;24.336;2022-10-16T12:52:02;100006.44;;;19.49;42.30
26376;BME280;30544;42.196;24.336;2022-10-16T12:54:30;100002.13;;;19.72;41.52
26376;BME280;30544;42.196;24.336;2022-10-16T12:57:12;100001.03;;;19.68;41.05
26376;BME280;30544;42.196;24.336;2022-10-16T12:59:48;100009.66;;;19.87;41.17
26376;BME280;30544;42.196;24.336;2022-10-16T13:02:49;100014.75;;;19.85;41.12
26376;BME280;30544;42.196;24.336;2022-10-16T13:05:27;100013.22;;;20.03;41.69